Nearby METAR Reports

 

EGTE - Exeter Airport, United Kingdom
Distance from station: S 19km
Updated: 06/03/2021 02:20
NOT Current
Mostly cloudy
Mostly cloudy
 Wind from varies
Wind: varies 6 km/h
Temperature: 1°C
Dew Point: -2°C
Humidity: 81%
Barometer: 1034 hPa
Clouds: Mostly cloudy
Visibility: 10 km
Cloud details: Mostly cloudy 1250 m
2021/03/06 02:20 EGTE 060220Z VRB03KT 9999 BKN041 01/M02 Q1034
EGDY - Yeovilton (navy), United Kingdom
Distance from station: ENE 55km
Updated: 06/03/2021 06:50
Clear
Clear
 Wind from NNE
Wind: NNE 7 km/h
Temperature: -1°C
Wind Chill: -4°C
Dew Point: -4°C
Humidity: 80%
Barometer: 1034 hPa
Clouds: Clear
Visibility: 10 km
2021/03/06 06:50 EGDY 060650Z AUTO 03004KT 9999 NCD M01/M04 Q1034
 
EGFF - Cardiff-Wales Ar, United Kingdom
Distance from station: N 56km
Updated: 06/03/2021 07:20
Mostly cloudy
Mostly cloudy
 Wind from NE
Wind: NE 9 km/h
Temperature: 2°C
Wind Chill: -1°C
Dew Point: -2°C
Humidity: 75%
Barometer: 1035 hPa
Clouds: Mostly cloudy
Visibility: 10 km
Cloud details: Mostly cloudy 1097 m
2021/03/06 07:20 EGFF 060720Z AUTO 05005KT 9999 BKN036 02/M02 Q1035
EGDX - St Athan Raf, United Kingdom
Distance from station: N 58km
Updated: 01/04/2019 13:50
NOT Current
Clear
Clear
 Wind from E
Wind: E 15 km/h
Temperature: 11°C
Dew Point: 5°C
Humidity: 67%
Barometer: 1019 hPa
Clouds: Clear
Visibility: 10 km
2019/04/01 12:50 EGDX 011250Z AUTO 10008KT 9999 NCD 11/05 Q1019
 
EGGD - Bristol/Lulsgate, United Kingdom
Distance from station: NE 71km
Updated: 06/03/2021 07:20
Clear
Clear
 Wind from N
Wind: N 9 km/h
Temperature: -1°C
Wind Chill: -4°C
Dew Point: -3°C
Humidity: 86%
Barometer: 1034 hPa
Clouds: Clear
Visibility: 10 km
2021/03/06 07:20 EGGD 060720Z AUTO 01005KT 9999 NCD M01/M03 Q1034